Latest Coastal Weather Observations for Redcliffe

IDQ60701

Issued at 6:35 am EST Sunday 26 October 2014 (issued every 10 minutes, with the page automatically refreshed every 10 minutes)

About coastal observations | Map of coastal stations | Coastal observations for QLD | Marine services | Other Formats
Station Details ID: 040958 Name: REDCLIFFE Lat: -27.22 Lon: 153.09 Height: 12.6 m
Data from the previous 72 hours. | See also: Recent months at Redcliffe
Date/Time
EST
Temp

°C
Wind Pressure Rain
since 9am
mm
Weather Cloud Vis
km
Sea
Height
m
Swell
Dir
 
Speed
knots
Gust
knots
hPa Trend Height
m
Period
s
Dir
26/06:30am 21.5 N 8 9 1016.4 - 0.0 - - - - - - -
26/06:00am 21.0 N 5 7 1016.2 - 0.0 - - - - - - -
26/05:30am 20.2 N 7 9 1015.8 - 0.0 - - - - - - -
26/05:00am 18.8 N 3 5 1015.7 - 0.0 - - - - - - -
26/04:30am 19.1 N 6 7 1015.4 - 0.0 - - - - - - -
26/04:00am 18.8 WNW 3 4 1015.3 - 0.0 - - - - - - -
26/03:30am 19.0 WNW 3 4 1015.3 - 0.0 - - - - - - -
26/03:00am 19.6 NNW 7 9 1015.1 - 0.0 - - - - - - -
26/02:30am 19.8 NNW 10 15 1014.9 - 0.0 - - - - - - -
26/02:00am 20.1 NNW 12 17 1015.0 - 0.0 - - - - - - -
26/01:30am 20.0 NNW 12 17 1015.6 - 0.0 - - - - - - -
26/01:00am 20.6 NNW 9 15 1016.4 - 0.0 - - - - - - -
26/12:30am 21.3 N 12 19 1016.4 - 0.0 - - - - - - -
26/12:00am 21.6 N 15 19 1016.7 - 0.0 - - - - - - -
 
Date/Time
EST
Temp

°C
Wind Pressure Rain
since 9am
mm
Weather Cloud Vis
km
Sea
Height
m
Swell
Dir
 
Speed
knots
Gust
knots
hPa Trend Height
m
Period
s
Dir
25/11:30pm 22.0 N 18 21 1016.9 - 0.0 - - - - - - -
25/11:00pm 22.0 N 16 18 1017.1 - 0.0 - - - - - - -
25/10:30pm 22.3 NNE 15 18 1017.0 - 0.0 - - - - - - -
25/10:00pm 22.5 N 15 17 1016.8 - 0.0 - - - - - - -
25/09:30pm 22.5 N 17 20 1016.5 - 0.0 - - - - - - -
25/09:00pm 22.6 N 17 20 1016.3 - 0.0 - - - - - - -
25/08:30pm 22.5 N 16 21 1016.1 - 0.0 - - - - - - -
25/08:00pm 22.6 N 21 26 1016.0 - 0.0 - - - - - - -
25/07:30pm 22.6 N 21 25 1015.8 - 0.0 - - - - - - -
25/07:00pm 22.7 N 22 26 1015.5 - 0.0 - - - - - - -
25/06:30pm 22.8 N 20 25 1015.3 - 0.0 - - - - - - -
25/06:00pm 23.0 N 20 24 1015.2 - 0.0 - - - - - - -
25/05:30pm 23.4 N 19 21 1014.8 - 0.0 - - - - - - -
25/05:00pm 23.8 N 18 22 1014.6 - 0.0 - - - - - - -
25/04:30pm 24.2 N 20 26 1014.4 - 0.0 - - - - - - -
25/04:00pm 24.2 N 21 26 1014.6 - 0.0 - - - - - - -
25/03:30pm 24.5 N 22 25 1014.8 - 0.0 - - - - - - -
25/03:00pm 24.5 NNE 20 23 1015.0 - 0.0 - - - - - - -
25/02:30pm 25.4 NNE 20 23 1015.4 - 0.0 - - - - - - -
25/02:00pm 24.6 NNE 22 26 1015.7 - 0.0 - - - - - - -
25/01:30pm 25.9 NE 21 25 1016.2 - 0.0 - - - - - - -
25/01:00pm 25.7 NNE 20 22 1016.7 - 0.0 - - - - - - -
25/12:30pm 26.0 NE 18 22 1017.2 - 0.0 - - - - - - -
25/12:00pm 25.8 NE 17 20 1017.8 - 0.0 - - - - - - -
25/11:30am 25.1 NE 16 18 1018.3 - 0.0 - - - - - - -
25/11:00am 25.5 NE 15 17 1018.9 - 0.0 - - - - - - -
25/10:30am 24.9 NNE 9 12 1019.6 - 0.0 - - - - - - -
25/10:00am 24.2 NNE 9 11 1020.3 - 0.0 - - - - - - -
25/09:30am 23.8 NNE 11 14 1020.7 - 0.0 - - - - - - -
25/09:00am 23.2 N 7 10 1020.8 - 0.0 - - - - - - -
25/08:30am 22.8 N 9 14 1021.0 - 0.0 - - - - - - -
25/08:00am 22.3 NNW 9 13 1021.0 - 0.0 - - - - - - -
25/07:30am 21.0 NNW 9 12 1021.1 - 0.0 - - - - - - -
25/07:00am 20.6 NNW 7 12 1021.2 - 0.0 - - - - - - -
25/06:30am 18.7 WNW 6 8 1020.9 - 0.0 - - - - - - -
25/06:00am 17.2 WNW 7 9 1020.6 - 0.0 - - - - - - -
25/05:30am 16.6 WNW 5 6 1020.1 - 0.0 - - - - - - -
25/05:00am 17.1 NW 6 7 1019.7 - 0.0 - - - - - - -
25/04:30am 17.9 NNW 6 8 1019.7 - 0.0 - - - - - - -
25/04:00am 17.2 NW 5 6 1019.4 - 0.0 - - - - - - -
25/03:30am 16.5 W 5 6 1019.5 - 0.0 - - - - - - -
25/03:00am 16.6 WNW 6 7 1019.3 - 0.0 - - - - - - -
25/02:30am 17.0 NW 5 7 1019.0 - 0.0 - - - - - - -
25/02:00am 18.1 NW 6 8 1019.1 - 0.0 - - - - - - -
25/01:30am 19.2 NNW 7 10 1019.2 - 0.0 - - - - - - -
25/01:00am 19.4 N 8 11 1019.6 - 0.0 - - - - - - -
25/12:30am 19.0 NNW 7 8 1020.4 - 0.0 - - - - - - -
25/12:00am 19.6 NNW 7 9 1021.0 - 0.0 - - - - - - -
 
Date/Time
EST
Temp

°C
Wind Pressure Rain
since 9am
mm
Weather Cloud Vis
km
Sea
Height
m
Swell
Dir
 
Speed
knots
Gust
knots
hPa Trend Height
m
Period
s
Dir
24/11:30pm 19.7 NNW 7 8 1021.3 - 0.0 - - - - - - -
24/11:00pm 19.8 N 7 9 1021.7 - 0.0 - - - - - - -
24/10:30pm 20.1 NNW 6 8 1022.0 - 0.0 - - - - - - -
24/10:00pm 20.3 N 8 9 1022.1 - 0.0 - - - - - - -
24/09:30pm 20.5 N 10 15 1022.4 - 0.0 - - - - - - -
24/09:00pm 20.9 N 14 17 1022.3 - 0.0 - - - - - - -
24/08:30pm 21.2 N 15 18 1021.9 - 0.0 - - - - - - -
24/08:00pm 21.2 NNE 17 19 1021.7 - 0.0 - - - - - - -
24/07:30pm 21.3 NNE 15 17 1021.7 - 0.0 - - - - - - -
24/07:00pm 21.3 N 15 17 1021.5 - 0.0 - - - - - - -
24/06:30pm 21.5 NNE 16 19 1020.9 - 0.0 - - - - - - -
24/06:00pm 21.6 NNE 17 20 1020.7 - 0.0 - - - - - - -
24/05:30pm 21.9 NNE 18 21 1020.2 - 0.0 - - - - - - -
24/05:00pm 22.2 NNE 18 19 1019.9 - 0.0 - - - - - - -
24/04:30pm 22.4 NNE 17 19 1019.8 - 0.0 - - - - - - -
24/04:00pm 22.5 NNE 18 20 1019.6 - 0.0 - - - - - - -
24/03:30pm 22.6 NNE 18 20 1019.7 - 0.0 - - - - - - -
24/03:00pm 23.2 NE 17 19 1019.7 - 0.0 - - - - - - -
24/02:30pm 23.4 NE 16 18 1019.9 - 0.0 - - - - - - -
24/02:00pm 23.4 NE 15 17 1020.2 - 0.0 - - - - - - -
24/01:30pm 23.8 NE 15 17 1020.4 - 0.0 - - - - - - -
24/01:00pm 23.3 NE 15 18 1020.6 - 0.0 - - - - - - -
24/12:30pm 23.6 NE 14 16 1020.8 - 0.0 - - - - - - -
24/12:00pm 24.4 ENE 12 15 1021.2 - 0.0 - - - - - - -
24/11:30am 23.2 ENE 12 15 1021.3 - 0.0 - - - - - - -
24/11:00am 23.5 ENE 10 12 1021.8 - 0.0 - - - - - - -
24/10:30am 24.7 ENE 8 10 1022.2 - 0.0 - - - - - - -
24/10:00am 24.7 ENE 7 8 1022.5 - 0.0 - - - - - - -
24/09:30am 23.3 NNE 8 10 1022.8 - 0.0 - - - - - - -
24/09:00am 23.1 N 7 9 1023.0 - 0.0 - - - - - - -
24/08:30am 22.8 NNW 5 8 1023.1 - 0.0 - - - - - - -
24/08:00am 21.8 NNW 6 9 1022.8 - 0.0 - - - - - - -
24/07:30am 21.5 NW 5 6 1022.6 - 0.0 - - - - - - -
24/07:00am 20.0 W 6 8 1022.5 - 0.0 - - - - - - -
24/06:30am 19.1 WNW 5 7 1022.1 - 0.0 - - - - - - -
24/06:00am 17.8 W 6 7 1022.1 - 0.0 - - - - - - -
24/05:30am 17.6 WNW 5 6 1021.7 - 0.0 - - - - - - -
24/05:00am 17.6 WNW 5 6 1021.4 - 0.0 - - - - - - -
24/04:30am 17.8 W 5 6 1021.4 - 0.0 - - - - - - -
24/04:00am 17.7 WNW 4 5 1020.9 - 0.0 - - - - - - -
24/03:30am 17.5 WNW 4 6 1020.7 - 0.0 - - - - - - -
24/03:00am 17.2 W 5 7 1020.5 - 0.0 - - - - - - -
24/02:30am 17.4 WNW 5 7 1020.6 - 0.0 - - - - - - -
24/02:00am 17.3 WNW 4 5 1020.6 - 0.0 - - - - - - -
24/01:30am 17.8 NW 5 7 1020.5 - 0.0 - - - - - - -
24/01:00am 18.8 N 5 6 1020.7 - 0.0 - - - - - - -
24/12:30am 18.6 N 5 6 1021.1 - 0.0 - - - - - - -
24/12:00am 19.4 NNW 6 8 1021.5 - 0.0 - - - - - - -
 
Date/Time
EST
Temp

°C
Wind Pressure Rain
since 9am
mm
Weather Cloud Vis
km
Sea
Height
m
Swell
Dir
 
Speed
knots
Gust
knots
hPa Trend Height
m
Period
s
Dir
23/11:30pm 20.0 N 7 9 1021.6 - 0.0 - - - - - - -
23/11:00pm 20.0 N 7 8 1021.7 - 0.0 - - - - - - -
23/10:30pm 20.3 NNE 13 14 1021.4 - 0.0 - - - - - - -
23/10:00pm 20.8 N 11 14 1021.5 - 0.0 - - - - - - -
23/09:30pm 20.8 NNE 9 11 1021.9 - 0.0 - - - - - - -
23/09:00pm 20.9 NNE 11 15 1022.0 - 0.0 - - - - - - -
23/08:30pm 20.9 NNE 12 14 1021.2 - 0.0 - - - - - - -
23/08:00pm 20.8 NNE 13 16 1020.9 - 0.0 - - - - - - -
23/07:30pm 20.9 NNE 13 17 1020.2 - 0.0 - - - - - - -
23/07:00pm 20.8 NNE 14 16 1020.0 - 0.0 - - - - - - -
23/06:30pm 20.9 NNE 15 17 1019.7 - 0.0 - - - - - - -
23/06:00pm 21.2 NNE 15 17 1019.3 - 0.0 - - - - - - -
23/05:30pm 21.5 NNE 16 18 1018.8 - 0.0 - - - - - - -
23/05:00pm 21.8 NNE 17 19 1018.4 - 0.0 - - - - - - -
23/04:30pm 22.3 NNE 18 20 1017.8 - 0.0 - - - - - - -
23/04:00pm 22.5 NNE 17 19 1017.8 - 0.0 - - - - - - -
23/03:30pm 22.6 NNE 17 19 1017.6 - 0.0 - - - - - - -
23/03:00pm 23.1 NNE 16 17 1017.6 - 0.0 - - - - - - -
23/02:30pm 23.4 NNE 15 17 1017.9 - 0.0 - - - - - - -
23/02:00pm 23.3 NE 13 16 1018.3 - 0.0 - - - - - - -
23/01:30pm 22.4 NE 13 15 1018.7 - 0.0 - - - - - - -
23/01:00pm 22.9 NE 13 15 1019.1 - 0.0 - - - - - - -
23/12:30pm 22.8 NE 13 14 1019.6 - 0.0 - - - - - - -
23/12:00pm 23.7 ENE 11 13 1020.2 - 0.0 - - - - - - -
23/11:30am 23.1 ENE 9 11 1020.8 - 0.0 - - - - - - -
23/11:00am 22.5 ENE 8 9 1021.2 - 0.0 - - - - - - -
23/10:30am 22.9 ENE 5 7 1021.7 - 0.0 - - - - - - -
23/10:00am 22.7 ENE 5 7 1022.1 - 0.0 - - - - - - -
23/09:30am 21.9 ESE 5 6 1022.5 - 0.0 - - - - - - -
23/09:00am 21.6 SSE 7 8 1022.5 - 0.0 - - - - - - -
23/08:30am 21.5 SSE 8 8 1022.6 - 0.0 - - - - - - -
23/08:00am 21.1 S 7 8 1022.6 - 0.0 - - - - - - -
23/07:30am 19.9 SW 5 6 1022.7 - 0.0 - - - - - - -
23/07:00am 18.4 WSW 5 6 1022.4 - 0.0 - - - - - - -

Other Formats:

Comma delimited format used in spreadsheet applications
http://www.bom.gov.au/fwo/IDQ60701/IDQ60701.95591.axf

JavaScript Object Notation format (JSON) in row-major order
http://www.bom.gov.au/fwo/IDQ60701/IDQ60701.95591.json